Time;durP1;ratioP1;P1;durP2;ratioP2;P2;SDS_P1;SDS_P2;PMS_P1;PMS_P2;Temp;Humidity;BMP_temperature;BMP_pressure;BME280_temperature;BME280_humidity;BME280_pressure;Samples;Min_cycle;Max_cycle;Signal;HPM_P1;HPM_P2
2021/09/17 00:00:06;;;;;;;32.33;15.40;;;;;;;12.27;100.00;95600.91;4969505;28;20074;-79
2021/09/17 00:02:52;;;;;;;33.05;15.45;;;;;;;12.21;100.00;95591.47;4961885;28;20576;-78
2021/09/17 00:05:17;;;;;;;33.40;15.38;;;;;;;12.19;100.00;95593.56;4968791;28;20055;-79
2021/09/17 00:07:43;;;;;;;36.75;14.85;;;;;;;12.17;100.00;95598.34;4951764;28;20054;-80
2021/09/17 00:10:09;;;;;;;35.28;14.30;;;;;;;12.30;100.00;95595.06;4957764;28;20038;-79
2021/09/17 00:12:34;;;;;;;29.05;13.88;;;;;;;12.18;100.00;95602.53;4965861;28;20521;-79
2021/09/17 00:15:00;;;;;;;37.17;15.48;;;;;;;12.19;100.00;95604.13;4970286;28;20047;-79
2021/09/17 00:17:25;;;;;;;35.17;14.20;;;;;;;12.34;100.00;95599.78;4971940;28;20058;-79
2021/09/17 00:19:53;;;;;;;31.48;14.90;;;;;;;12.22;100.00;95593.00;4970793;28;20601;-78
2021/09/17 00:22:18;;;;;;;34.20;15.02;;;;;;;12.10;100.00;95592.59;4968163;28;20055;-78
2021/09/17 00:24:44;;;;;;;31.60;15.00;;;;;;;12.21;100.00;95599.38;4967913;28;20050;-79
2021/09/17 00:27:09;;;;;;;34.53;14.77;;;;;;;12.11;100.00;95591.53;4973321;28;20039;-79
2021/09/17 00:29:35;;;;;;;37.05;15.48;;;;;;;12.05;100.00;95587.38;4971868;28;20047;-79
2021/09/17 00:32:00;;;;;;;37.08;15.38;;;;;;;11.95;100.00;95583.75;4968582;28;20050;-78
2021/09/17 00:34:26;;;;;;;41.10;15.88;;;;;;;11.80;100.00;95586.47;4964016;28;20528;-79
2021/09/17 00:36:52;;;;;;;38.75;15.93;;;;;;;11.70;100.00;95586.53;4960860;28;20069;-79
2021/09/17 00:39:17;;;;;;;34.35;15.85;;;;;;;11.77;100.00;95592.28;4966448;28;20054;-80
2021/09/17 00:41:43;;;;;;;40.72;15.90;;;;;;;11.88;100.00;95596.44;4971471;28;20121;-77
2021/09/17 00:44:10;;;;;;;38.70;15.77;;;;;;;11.79;100.00;95590.16;4970953;28;20043;-79
2021/09/17 00:46:36;;;;;;;39.70;16.60;;;;;;;11.70;100.00;95591.81;4973165;28;20505;-79
2021/09/17 00:49:03;;;;;;;38.67;16.00;;;;;;;11.82;100.00;95592.25;4971259;28;20416;-80
2021/09/17 00:51:29;;;;;;;34.63;15.43;;;;;;;11.74;100.00;95592.84;4965507;28;20047;-79
2021/09/17 00:53:55;;;;;;;36.33;15.63;;;;;;;11.61;100.00;95589.75;4957225;28;20587;-78
2021/09/17 00:56:21;;;;;;;44.08;16.10;;;;;;;11.61;100.00;95589.75;4972041;28;20042;-80
2021/09/17 00:58:47;;;;;;;40.60;16.52;;;;;;;11.41;100.00;95574.84;4972726;28;20485;-79
2021/09/17 01:01:12;;;;;;;37.53;15.73;;;;;;;11.37;100.00;95578.31;4971199;28;20047;-79
2021/09/17 01:03:38;;;;;;;37.25;15.30;;;;;;;11.48;100.00;95585.09;4958092;28;20782;-79
2021/09/17 01:06:04;;;;;;;38.13;15.57;;;;;;;11.53;100.00;95577.16;4966773;28;20039;-78
2021/09/17 01:08:32;;;;;;;42.00;16.73;;;;;;;11.46;100.00;95576.66;4956820;28;20071;-78
2021/09/17 01:10:59;;;;;;;42.33;16.67;;;;;;;11.30;100.00;95572.56;4972821;28;20043;-80
2021/09/17 01:13:26;;;;;;;35.72;15.93;;;;;;;11.31;100.00;95574.13;4972460;28;20038;-78
2021/09/17 01:15:52;;;;;;;36.33;15.38;;;;;;;11.26;100.00;95570.47;4971325;28;20043;-80
2021/09/17 01:18:18;;;;;;;40.38;15.95;;;;;;;11.16;100.00;95562.63;4970139;28;20563;-79
2021/09/17 01:20:44;;;;;;;42.42;16.90;;;;;;;11.03;100.00;95561.38;4964249;28;20057;-79
2021/09/17 01:23:09;;;;;;;35.30;15.35;;;;;;;11.06;100.00;95562.66;4971803;28;20140;-81
2021/09/17 01:25:35;;;;;;;39.78;16.20;;;;;;;11.17;100.00;95561.53;4957852;28;20058;-79
2021/09/17 01:28:00;;;;;;;42.55;15.52;;;;;;;11.05;100.00;95555.81;4956431;28;20042;-79
2021/09/17 01:30:26;;;;;;;43.03;16.23;;;;;;;11.07;100.00;95553.69;4970930;28;20578;-79
2021/09/17 01:32:52;;;;;;;41.42;16.98;;;;;;;11.01;100.00;95549.53;4966455;28;20477;-80
2021/09/17 01:35:20;;;;;;;36.05;15.80;;;;;;;11.11;100.00;95549.47;4966910;28;20612;-79
2021/09/17 01:37:46;;;;;;;36.90;16.45;;;;;;;11.08;100.00;95550.00;4968418;28;20053;-79
2021/09/17 01:40:12;;;;;;;38.50;15.40;;;;;;;11.12;100.00;95551.06;4971504;28;20519;-80
2021/09/17 01:42:39;;;;;;;35.60;15.02;;;;;;;11.24;100.00;95548.84;4970864;28;20427;-78
2021/09/17 01:45:05;;;;;;;40.42;16.15;;;;;;;11.15;100.00;95545.22;4970181;28;20132;-79
2021/09/17 01:47:30;;;;;;;41.58;15.82;;;;;;;11.22;100.00;95551.00;4971142;28;20066;-80
2021/09/17 01:49:56;;;;;;;43.35;16.75;;;;;;;11.14;100.00;95554.19;4971694;28;20113;-79
2021/09/17 01:52:21;;;;;;;39.03;16.27;;;;;;;11.15;100.00;95553.13;4966485;28;20043;-79
2021/09/17 01:54:47;;;;;;;37.95;16.00;;;;;;;11.19;100.00;95546.28;4965536;28;20046;-79
2021/09/17 01:57:13;;;;;;;38.67;15.77;;;;;;;11.19;100.00;95551.53;4971664;28;20122;-79
2021/09/17 01:59:38;;;;;;;38.63;15.57;;;;;;;11.19;100.00;95541.00;4960129;28;20043;-80
2021/09/17 02:02:04;;;;;;;40.05;15.52;;;;;;;11.31;100.00;95547.78;4968113;28;20051;-79
2021/09/17 02:04:29;;;;;;;39.30;15.25;;;;;;;11.17;100.00;95543.09;4971533;28;20070;-80
2021/09/17 02:06:55;;;;;;;36.88;15.10;;;;;;;11.35;100.00;95554.06;4959317;28;20047;-80
2021/09/17 02:09:21;;;;;;;40.58;15.40;;;;;;;11.21;100.00;95549.41;4966000;28;20110;-78
2021/09/17 02:11:46;;;;;;;36.15;15.20;;;;;;;11.20;100.00;95542.56;4952143;28;20473;-79
2021/09/17 02:14:12;;;;;;;39.50;14.93;;;;;;;11.21;100.00;95549.41;4970699;28;20102;-78
2021/09/17 02:16:39;;;;;;;35.13;14.85;;;;;;;11.25;100.00;95560.97;4970195;28;20493;-79
2021/09/17 02:19:06;;;;;;;36.85;14.57;;;;;;;11.22;100.00;95556.25;4965406;28;20057;-79
2021/09/17 02:21:32;;;;;;;31.40;14.50;;;;;;;11.16;100.00;95552.09;4970922;28;20045;-80
2021/09/17 02:23:58;;;;;;;35.00;15.27;;;;;;;11.22;100.00;95556.25;4969935;28;20046;-80
2021/09/17 02:26:23;;;;;;;39.05;14.98;;;;;;;11.33;100.00;95561.47;4971318;28;20073;-78
2021/09/17 02:28:49;;;;;;;36.85;14.23;;;;;;;11.55;100.00;95564.50;4966572;28;20094;-79
2021/09/17 02:31:14;;;;;;;30.48;13.40;;;;;;;11.60;100.00;95566.31;4970804;28;20082;-79
2021/09/17 02:33:40;;;;;;;29.67;13.93;;;;;;;11.54;100.00;95565.56;4969131;28;20042;-78
2021/09/17 02:36:06;;;;;;;30.77;14.98;;;;;;;11.50;100.00;95572.44;4966220;28;20102;-80
2021/09/17 02:38:32;;;;;;;31.83;12.60;;;;;;;11.43;100.00;95566.66;4956510;28;20047;-78
2021/09/17 02:40:58;;;;;;;33.75;13.80;;;;;;;11.48;100.00;95569.28;4970716;28;20519;-78
2021/09/17 02:43:24;;;;;;;29.38;12.82;;;;;;;11.53;100.00;95565.81;4969069;28;20108;-79
2021/09/17 02:45:49;;;;;;;29.55;13.50;;;;;;;11.32;100.00;95562.53;4969003;28;20039;-79
2021/09/17 02:48:15;;;;;;;28.25;13.10;;;;;;;11.41;100.00;95566.16;4968903;28;20047;-79
2021/09/17 02:50:40;;;;;;;35.47;12.85;;;;;;;11.41;100.00;95563.53;4969051;28;20043;-78
2021/09/17 02:53:07;;;;;;;29.92;13.57;;;;;;;11.43;100.00;95566.66;4958753;28;20109;-78
2021/09/17 02:55:32;;;;;;;32.97;12.90;;;;;;;11.43;100.00;95564.03;4969748;28;20055;-79
2021/09/17 02:57:58;;;;;;;31.02;12.52;;;;;;;11.35;100.00;95559.34;4970545;28;20046;-79
2021/09/17 03:00:24;;;;;;;36.47;12.73;;;;;;;11.33;100.00;95546.44;4966718;28;20047;-79
2021/09/17 03:02:50;;;;;;;29.65;13.95;;;;;;;11.21;100.00;95554.69;4968844;28;20424;-79
2021/09/17 03:05:16;;;;;;;31.95;12.82;;;;;;;11.42;100.00;95565.09;4970653;28;20515;-79
2021/09/17 03:07:42;;;;;;;28.55;12.85;;;;;;;11.38;100.00;95558.81;4952555;28;20047;-78
2021/09/17 03:10:08;;;;;;;29.25;12.55;;;;;;;11.34;100.00;95557.78;4958417;28;20063;-79
2021/09/17 03:12:34;;;;;;;31.65;12.35;;;;;;;11.27;100.00;95553.59;4955094;28;20054;-79
2021/09/17 03:14:59;;;;;;;34.00;13.27;;;;;;;11.16;100.00;95552.09;4969428;28;20046;-79
2021/09/17 03:17:25;;;;;;;35.97;13.63;;;;;;;11.04;100.00;95554.25;4952540;28;20039;-79
2021/09/17 03:19:51;;;;;;;31.83;13.32;;;;;;;10.98;100.00;95550.06;4962520;28;20591;-79
2021/09/17 03:22:16;;;;;;;33.15;13.70;;;;;;;10.86;100.00;95559.06;4970421;28;20074;-79
2021/09/17 03:24:42;;;;;;;38.53;14.70;;;;;;;10.88;100.00;95567.47;4961888;28;20052;-79
2021/09/17 03:27:07;;;;;;;33.67;14.60;;;;;;;10.90;100.00;95549.56;4960859;28;20456;-78
2021/09/17 03:29:33;;;;;;;36.00;13.93;;;;;;;10.95;100.00;95553.22;4950693;28;20102;-79
2021/09/17 03:31:59;;;;;;;29.08;12.57;;;;;;;10.91;100.00;95535.31;4958524;28;20101;-79
2021/09/17 03:34:25;;;;;;;34.67;13.45;;;;;;;11.05;100.00;95550.56;4967573;28;20047;-79
2021/09/17 03:36:51;;;;;;;33.95;13.32;;;;;;;11.05;100.00;95545.28;4963600;28;20055;-80
2021/09/17 03:39:17;;;;;;;29.95;12.95;;;;;;;11.07;100.00;95543.16;4968698;28;20039;-79
2021/09/17 03:41:45;;;;;;;33.40;13.30;;;;;;;11.04;100.00;95543.72;4970405;28;20047;-80
2021/09/17 03:44:12;;;;;;;29.70;12.38;;;;;;;11.22;100.00;95545.72;4970853;28;20050;-79
2021/09/17 03:46:38;;;;;;;30.73;12.82;;;;;;;11.14;100.00;95543.66;4970613;28;20042;-80
2021/09/17 03:49:04;;;;;;;36.10;14.35;;;;;;;11.16;100.00;95541.56;4974432;28;20043;-78
2021/09/17 03:51:29;;;;;;;31.23;13.65;;;;;;;11.14;100.00;95538.38;4972354;28;20409;-80
2021/09/17 03:53:55;;;;;;;29.52;13.05;;;;;;;11.19;100.00;95535.72;4972284;28;20459;-79
2021/09/17 03:56:20;;;;;;;35.90;13.05;;;;;;;11.18;100.00;95539.41;4970956;28;20043;-79
2021/09/17 03:58:46;;;;;;;33.00;13.68;;;;;;;11.08;100.00;95539.47;4972280;28;20532;-80
2021/09/17 04:01:11;;;;;;;26.75;12.75;;;;;;;11.08;100.00;95534.22;4973600;28;20078;-80
2021/09/17 04:03:37;;;;;;;28.00;13.00;;;;;;;11.10;100.00;95532.09;4971874;28;20047;-79
2021/09/17 04:06:03;;;;;;;26.80;12.70;;;;;;;11.21;100.00;95532.81;4967279;28;20164;-81
2021/09/17 04:08:28;;;;;;;32.63;13.27;;;;;;;11.16;100.00;95530.22;4966000;28;20106;-79
2021/09/17 04:10:54;;;;;;;33.10;12.70;;;;;;;11.12;100.00;95535.25;4958312;28;20039;-80
2021/09/17 04:13:19;;;;;;;33.30;13.45;;;;;;;11.21;100.00;95528.34;4963408;28;20066;-79
2021/09/17 04:15:45;;;;;;;32.80;13.68;;;;;;;11.16;100.00;95528.38;4973417;28;20047;-80
2021/09/17 04:18:10;;;;;;;33.35;13.38;;;;;;;11.11;100.00;95536.28;4966753;28;20565;-81
2021/09/17 04:20:36;;;;;;;35.85;13.43;;;;;;;11.08;100.00;95524.44;4953143;29;20122;-80
2021/09/17 04:23:02;;;;;;;30.27;13.20;;;;;;;11.16;100.00;95533.66;4961880;28;20466;-79
2021/09/17 04:25:28;;;;;;;34.05;12.55;;;;;;;11.10;100.00;95534.72;4967839;28;20058;-80
2021/09/17 04:27:55;;;;;;;30.67;12.77;;;;;;;11.06;100.00;95546.84;4970627;28;20445;-79
2021/09/17 04:30:21;;;;;;;35.70;13.48;;;;;;;11.11;100.00;95538.94;4964504;28;20035;-80
2021/09/17 04:32:47;;;;;;;32.15;13.43;;;;;;;11.17;100.00;95537.84;4958587;28;20100;-79
2021/09/17 04:35:13;;;;;;;33.03;13.98;;;;;;;11.15;100.00;95547.88;4973005;28;20555;-81
2021/09/17 04:38:07;;;;;;;31.98;13.75;;;;;;;11.15;100.00;95545.22;4966409;28;20501;-81
2021/09/17 04:40:33;;;;;;;32.80;12.73;;;;;;;11.10;100.00;95542.63;4973548;28;20129;-81
2021/09/17 04:42:59;;;;;;;31.73;13.27;;;;;;;11.05;100.00;95546.06;4971276;28;20043;-80
2021/09/17 04:45:25;;;;;;;35.10;13.55;;;;;;;11.15;100.00;95545.22;4972253;28;20039;-79
2021/09/17 04:47:51;;;;;;;30.38;13.05;;;;;;;11.22;100.00;95545.72;4972574;28;20030;-81
2021/09/17 04:50:17;;;;;;;36.08;13.45;;;;;;;11.27;100.00;95543.03;4973752;28;20038;-81
2021/09/17 04:52:42;;;;;;;29.73;12.95;;;;;;;11.31;100.00;95553.06;4972749;28;20050;-79
2021/09/17 04:55:08;;;;;;;30.98;13.88;;;;;;;11.21;100.00;95559.94;4975062;28;20452;-80
2021/09/17 04:57:36;;;;;;;29.33;13.00;;;;;;;11.33;100.00;95558.84;4970685;28;20043;-79
2021/09/17 05:00:03;;;;;;;27.10;13.02;;;;;;;11.44;100.00;95552.44;4971249;28;20498;-81
2021/09/17 05:02:29;;;;;;;31.90;13.20;;;;;;;11.54;100.00;95552.38;4961111;28;20046;-80
2021/09/17 05:04:54;;;;;;;27.70;12.60;;;;;;;11.48;100.00;95553.47;4972613;28;20054;-80
2021/09/17 05:07:20;;;;;;;28.58;12.45;;;;;;;11.46;100.00;95566.13;4970746;28;20042;-80
2021/09/17 05:09:46;;;;;;;29.05;13.07;;;;;;;11.37;100.00;95557.22;4971677;28;20039;-81
2021/09/17 05:12:11;;;;;;;29.58;12.85;;;;;;;11.33;100.00;95567.50;4972947;28;20043;-80
2021/09/17 05:14:37;;;;;;;30.92;13.63;;;;;;;11.36;100.00;95566.19;4967199;28;20058;-80
2021/09/17 05:17:03;;;;;;;28.23;12.57;;;;;;;11.41;100.00;95560.91;4972561;28;20086;-81
2021/09/17 05:19:28;;;;;;;26.23;12.10;;;;;;;11.35;100.00;95569.88;4961478;28;20310;-81
2021/09/17 05:21:55;;;;;;;29.40;12.50;;;;;;;11.41;100.00;95566.16;4971663;28;20043;-79
2021/09/17 05:24:22;;;;;;;37.20;12.55;;;;;;;11.39;100.00;95565.63;4963523;28;20050;-80
2021/09/17 05:26:48;;;;;;;27.30;12.60;;;;;;;11.35;100.00;95559.34;4970786;28;20047;-81
2021/09/17 05:29:13;;;;;;;30.33;13.27;;;;;;;11.32;100.00;95570.41;4962839;28;20082;-80
2021/09/17 05:31:39;;;;;;;29.30;12.98;;;;;;;11.33;100.00;95561.47;4959276;28;20067;-80
2021/09/17 05:34:05;;;;;;;28.90;12.60;;;;;;;11.46;100.00;95565.34;4958946;28;20066;-80
2021/09/17 05:36:31;;;;;;;30.83;13.15;;;;;;;11.45;100.00;95559.28;4969095;28;20047;-80
2021/09/17 05:38:56;;;;;;;28.60;12.93;;;;;;;11.44;100.00;95560.34;4967912;28;20062;-81
2021/09/17 05:41:22;;;;;;;31.92;13.10;;;;;;;11.41;100.00;95564.31;4968158;28;20420;-80
2021/09/17 05:43:47;;;;;;;29.42;13.38;;;;;;;11.45;100.00;95567.19;4971089;28;20042;-80
2021/09/17 05:46:13;;;;;;;30.63;12.75;;;;;;;11.41;100.00;95574.84;4968212;28;20039;-80
2021/09/17 05:48:39;;;;;;;32.58;13.20;;;;;;;11.44;100.00;95568.25;4971647;28;20042;-80
2021/09/17 05:51:04;;;;;;;34.03;13.75;;;;;;;11.47;100.00;95567.69;4955448;28;20047;-79
2021/09/17 05:53:30;;;;;;;32.67;14.07;;;;;;;11.34;100.00;95568.31;4968950;28;20073;-80
2021/09/17 05:55:56;;;;;;;35.55;14.77;;;;;;;11.23;100.00;95557.84;4958269;28;20069;-80
2021/09/17 05:58:21;;;;;;;34.40;13.82;;;;;;;11.53;100.00;95571.88;4971928;28;20043;-80
2021/09/17 06:00:47;;;;;;;31.75;14.30;;;;;;;11.67;100.00;95571.28;4968971;28;20042;-80
2021/09/17 06:03:12;;;;;;;31.50;14.02;;;;;;;11.74;100.00;95566.50;4965439;28;20035;-80
2021/09/17 06:05:38;;;;;;;30.92;13.85;;;;;;;11.69;100.00;95574.41;4967995;28;20117;-81
2021/09/17 06:08:03;;;;;;;33.40;14.48;;;;;;;11.70;100.00;95570.72;4957140;28;20138;-82
2021/09/17 06:10:29;;;;;;;36.75;14.73;;;;;;;11.75;100.00;95573.31;4960512;28;20050;-80
2021/09/17 06:12:54;;;;;;;34.95;13.85;;;;;;;11.63;100.00;95575.53;4964128;28;20051;-80
2021/09/17 06:15:20;;;;;;;33.17;14.25;;;;;;;11.98;100.00;95576.34;4970903;28;20077;-79
2021/09/17 06:17:46;;;;;;;31.25;13.90;;;;;;;12.09;100.00;95575.19;4963124;28;20038;-80
2021/09/17 06:20:12;;;;;;;33.70;13.52;;;;;;;12.20;100.00;95579.31;4969217;28;20038;-80
2021/09/17 06:22:39;;;;;;;33.28;13.57;;;;;;;12.18;100.00;95580.66;4970179;28;20062;-81
2021/09/17 06:25:06;;;;;;;28.05;13.15;;;;;;;12.20;100.00;95579.31;4969745;28;20042;-82
2021/09/17 06:27:32;;;;;;;30.15;13.60;;;;;;;12.28;100.00;95581.38;4971311;28;20043;-82
2021/09/17 06:29:57;;;;;;;32.30;13.77;;;;;;;12.37;100.00;95578.91;4969095;28;20043;-81
2021/09/17 06:32:23;;;;;;;29.52;13.18;;;;;;;12.29;100.00;95574.22;4967505;28;20038;-80
2021/09/17 06:34:49;;;;;;;31.67;13.27;;;;;;;12.37;100.00;95570.19;4971199;28;20420;-80
2021/09/17 06:37:14;;;;;;;29.05;13.35;;;;;;;12.35;100.00;95564.41;4966846;28;20046;-81
2021/09/17 06:39:40;;;;;;;31.13;13.85;;;;;;;12.35;100.00;95577.63;4976105;28;20385;-79
2021/09/17 06:42:07;;;;;;;36.28;13.30;;;;;;;12.42;99.67;95575.44;4971548;28;20435;-80
2021/09/17 06:44:33;;;;;;;32.58;14.45;;;;;;;12.46;99.50;95571.19;4967408;28;20046;-80
2021/09/17 06:46:58;;;;;;;36.35;13.70;;;;;;;12.41;99.99;95574.66;4968084;28;20046;-80
2021/09/17 06:49:24;;;;;;;31.75;13.93;;;;;;;12.43;100.00;95577.00;4969387;28;20049;-79
2021/09/17 06:51:49;;;;;;;28.50;13.30;;;;;;;12.52;98.93;95570.03;4968547;28;20859;-80
2021/09/17 06:54:15;;;;;;;27.02;13.05;;;;;;;12.52;100.00;95577.97;4965134;28;20207;-80
2021/09/17 06:56:40;;;;;;;33.75;13.88;;;;;;;12.47;100.00;95570.13;4959526;28;20051;-80
2021/09/17 06:59:06;;;;;;;27.08;13.85;;;;;;;12.64;99.72;95578.38;4964032;28;20038;-79
2021/09/17 07:01:32;;;;;;;34.42;14.70;;;;;;;12.53;100.00;95587.47;4966342;28;20039;-78
2021/09/17 07:03:57;;;;;;;33.03;13.65;;;;;;;12.70;100.00;95588.88;4968682;28;20396;-78
2021/09/17 07:06:23;;;;;;;27.60;12.55;;;;;;;12.71;99.95;95577.25;4962185;28;20080;-76
2021/09/17 07:08:48;;;;;;;31.75;13.20;;;;;;;12.71;100.00;95587.81;4971564;28;20051;-76
2021/09/17 07:11:14;;;;;;;29.52;12.45;;;;;;;12.62;99.55;95577.84;4967951;28;20129;-77
2021/09/17 07:13:40;;;;;;;31.10;13.80;;;;;;;12.52;100.00;95575.31;4968376;28;20065;-78
2021/09/17 07:16:06;;;;;;;29.30;13.95;;;;;;;12.62;100.00;95587.63;4965547;28;20054;-80
2021/09/17 07:18:31;;;;;;;28.00;12.57;;;;;;;12.60;99.59;95574.72;4966610;28;20133;-79
2021/09/17 07:20:57;;;;;;;29.65;13.32;;;;;;;12.68;100.00;95583.09;4968857;28;20061;-77
2021/09/17 07:23:23;;;;;;;30.17;13.32;;;;;;;12.74;99.69;95580.13;4968979;28;20042;-78
2021/09/17 07:25:49;;;;;;;33.20;13.43;;;;;;;12.78;100.00;95578.47;4968477;28;20047;-76
2021/09/17 07:28:15;;;;;;;35.80;13.52;;;;;;;12.86;100.00;95581.56;4969015;28;20575;-76
2021/09/17 07:30:40;;;;;;;29.85;13.85;;;;;;;12.93;99.39;95574.88;4968502;28;20049;-76
2021/09/17 07:33:06;;;;;;;29.13;14.10;;;;;;;12.88;98.00;95572.28;4967404;28;20035;-77
2021/09/17 07:35:32;;;;;;;29.58;13.82;;;;;;;12.99;97.38;95572.97;4965659;28;20070;-77
2021/09/17 07:37:59;;;;;;;33.35;13.95;;;;;;;12.80;98.70;95575.56;4957301;28;20043;-77
2021/09/17 07:40:27;;;;;;;30.05;13.25;;;;;;;13.10;97.85;95576.25;4968850;28;20071;-77
2021/09/17 07:42:53;;;;;;;32.47;13.57;;;;;;;13.22;97.05;95571.38;4965692;28;20606;-76
2021/09/17 07:45:21;;;;;;;31.00;13.57;;;;;;;13.26;97.11;95561.81;4964785;28;20559;-76
2021/09/17 07:47:47;;;;;;;28.52;13.75;;;;;;;13.27;100.00;95573.94;4965551;28;20060;-76
2021/09/17 07:50:14;;;;;;;31.08;13.07;;;;;;;13.33;96.96;95572.81;4965375;28;20038;-76
2021/09/17 07:52:40;;;;;;;33.08;14.63;;;;;;;13.19;95.82;95571.94;4966497;28;20047;-76
2021/09/17 07:55:07;;;;;;;35.60;13.30;;;;;;;13.45;94.35;95566.34;4979302;28;20121;-75
2021/09/17 07:57:33;;;;;;;25.83;12.43;;;;;;;13.40;97.93;95567.19;4965328;28;20062;-75
2021/09/17 07:59:58;;;;;;;30.75;13.98;;;;;;;13.40;98.18;95569.03;4967061;28;20039;-76
2021/09/17 08:02:24;;;;;;;27.77;13.43;;;;;;;13.59;97.23;95567.19;4967086;28;20066;-76
2021/09/17 08:04:49;;;;;;;30.17;12.38;;;;;;;13.68;95.69;95568.09;4975469;28;20035;-75
2021/09/17 08:07:15;;;;;;;29.52;13.38;;;;;;;13.63;95.99;95568.19;4961424;28;20177;-76
2021/09/17 08:09:41;;;;;;;26.83;12.63;;;;;;;13.71;96.15;95576.56;4969324;28;20137;-76
2021/09/17 08:12:06;;;;;;;24.55;11.55;;;;;;;13.87;93.67;95572.59;4970246;28;20047;-76
2021/09/17 08:14:32;;;;;;;26.60;12.15;;;;;;;13.84;93.25;95575.81;4965482;28;20050;-76
2021/09/17 08:16:58;;;;;;;26.90;12.27;;;;;;;14.00;93.88;95576.38;4969530;28;20110;-75
2021/09/17 08:19:24;;;;;;;24.45;11.68;;;;;;;13.91;92.95;95576.25;4968010;28;20046;-75
2021/09/17 08:21:51;;;;;;;20.13;11.07;;;;;;;14.00;93.41;95579.78;4966611;28;20555;-77
2021/09/17 08:24:16;;;;;;;24.17;11.68;;;;;;;13.95;93.28;95582.53;4965116;28;20038;-77
2021/09/17 08:26:43;;;;;;;29.02;11.75;;;;;;;13.79;94.57;95586.47;4970663;28;20046;-77
2021/09/17 08:29:09;;;;;;;23.38;11.68;;;;;;;13.88;95.86;95584.75;4968806;28;20046;-76
2021/09/17 08:31:35;;;;;;;23.90;11.35;;;;;;;14.21;94.05;95582.91;4968859;28;20051;-77
2021/09/17 08:34:01;;;;;;;25.17;11.32;;;;;;;14.27;95.50;95582.81;4972073;28;20420;-76
2021/09/17 08:36:26;;;;;;;20.80;11.00;;;;;;;14.34;93.15;95578.72;4968424;28;20077;-77
2021/09/17 08:38:52;;;;;;;21.15;11.10;;;;;;;14.28;94.57;95579.88;4966818;28;20043;-75
2021/09/17 08:41:17;;;;;;;18.83;9.77;;;;;;;14.41;94.46;95578.34;4969474;28;20515;-77
2021/09/17 08:43:43;;;;;;;17.65;9.60;;;;;;;14.43;92.60;95576.16;4973110;28;20047;-76
2021/09/17 08:46:15;;;;;;;20.40;9.73;;;;;;;14.49;91.02;95579.53;4964141;28;20042;-75
2021/09/17 08:48:43;;;;;;;20.08;9.73;;;;;;;14.43;91.03;95580.69;4961493;28;21705;-77
2021/09/17 08:51:09;;;;;;;17.80;8.68;;;;;;;14.38;91.25;95579.69;4971011;28;20066;-76
2021/09/17 08:53:34;;;;;;;19.83;8.68;;;;;;;14.52;90.66;95573.63;4965866;28;20703;-76
2021/09/17 08:56:00;;;;;;;17.70;8.25;;;;;;;14.54;88.34;95584.72;4967344;28;20043;-77
2021/09/17 08:58:27;;;;;;;17.85;8.02;;;;;;;14.60;90.24;95580.91;4955144;28;20043;-77
2021/09/17 09:00:55;;;;;;;18.67;8.52;;;;;;;14.62;89.35;95584.06;4961443;28;20046;-76
2021/09/17 09:03:34;;;;;;;15.15;7.43;;;;;;;14.67;89.79;95580.56;4972147;28;20484;-77
2021/09/17 09:06:12;;;;;;;15.38;7.60;;;;;;;14.66;87.57;95579.75;4959369;28;20050;-76
2021/09/17 09:08:40;;;;;;;17.80;7.68;;;;;;;14.51;89.20;95580.00;4971745;28;20511;-76
2021/09/17 09:11:35;;;;;;;14.38;7.68;;;;;;;14.55;88.57;95573.03;4973185;28;20031;-76
2021/09/17 09:14:06;;;;;;;15.57;8.13;;;;;;;14.55;88.72;95567.75;4965903;28;20121;-77
2021/09/17 09:16:43;;;;;;;20.85;8.10;;;;;;;14.42;90.33;95579.13;4956357;28;20050;-79
2021/09/17 09:19:37;;;;;;;17.33;8.13;;;;;;;14.64;90.76;95579.28;4969667;28;20046;-78
2021/09/17 09:22:03;;;;;;;18.25;7.53;;;;;;;14.83;89.21;95571.22;4958787;28;20051;-75
2021/09/17 09:24:33;;;;;;;13.30;7.20;;;;;;;14.63;89.50;95561.81;4970764;28;20042;-77
2021/09/17 09:27:19;;;;;;;22.77;7.32;;;;;;;14.93;87.51;95567.59;4971202;28;20424;-76
2021/09/17 09:29:48;;;;;;;14.07;7.40;;;;;;;15.02;85.66;95555.22;4964782;28;20069;-75
2021/09/17 09:32:27;;;;;;;13.57;7.10;;;;;;;15.12;85.45;95558.75;4960896;28;20809;-77
2021/09/17 09:34:56;;;;;;;16.90;7.43;;;;;;;15.19;90.58;95553.84;4970712;28;20039;-77
2021/09/17 09:37:25;;;;;;;14.60;7.63;;;;;;;15.11;86.28;95551.88;4977848;28;20475;-77
2021/09/17 09:39:54;;;;;;;16.52;7.50;;;;;;;15.29;83.53;95553.63;4974402;28;20062;-77
2021/09/17 09:42:29;;;;;;;17.27;9.20;;;;;;;14.97;84.96;95551.88;4981554;28;20504;-77
2021/09/17 09:45:13;;;;;;;16.15;8.38;;;;;;;14.90;83.99;95547.00;4970614;28;20102;-77
2021/09/17 09:47:41;;;;;;;15.40;8.30;;;;;;;14.72;84.73;95538.88;4953937;28;20046;-77
2021/09/17 09:50:09;;;;;;;17.33;8.70;;;;;;;14.69;89.39;95547.38;4965998;28;20501;-77
2021/09/17 09:52:35;;;;;;;16.02;8.02;;;;;;;14.57;86.58;95544.41;4971464;28;20039;-77
2021/09/17 09:55:01;;;;;;;15.55;8.80;;;;;;;14.54;86.42;95540.50;4972027;28;20038;-76
2021/09/17 09:57:27;;;;;;;13.35;8.52;;;;;;;14.94;83.32;95547.19;4972799;28;20408;-77
2021/09/17 09:59:56;;;;;;;19.75;9.02;;;;;;;15.09;81.18;95538.16;4966814;28;20054;-78
2021/09/17 10:02:23;;;;;;;16.40;8.80;;;;;;;14.90;84.44;95541.69;4970561;28;20540;-77
2021/09/17 10:04:49;;;;;;;16.10;9.15;;;;;;;14.98;84.94;95533.03;4969792;28;20440;-79
2021/09/17 10:07:18;;;;;;;16.70;8.85;;;;;;;14.68;81.47;95535.25;4960723;28;20047;-80
2021/09/17 10:09:44;;;;;;;19.75;8.65;;;;;;;14.94;82.06;95532.09;4951527;29;20047;-81
2021/09/17 10:12:11;;;;;;;15.52;9.05;;;;;;;14.95;85.74;95533.63;4970249;28;20098;-80
2021/09/17 10:14:40;;;;;;;15.10;8.15;;;;;;;15.28;82.40;95509.63;4968118;28;20081;-82
2021/09/17 10:17:12;;;;;;;13.48;7.72;;;;;;;15.35;83.83;95531.22;4969016;28;20058;-82
2021/09/17 10:19:38;;;;;;;11.68;7.25;;;;;;;15.59;77.53;95535.47;4970195;28;20043;-80
2021/09/17 10:22:05;;;;;;;12.20;7.15;;;;;;;15.38;80.50;95527.19;4967090;28;20054;-80
2021/09/17 10:24:38;;;;;;;11.00;6.32;;;;;;;15.46;79.44;95520.38;4970475;28;20046;-78
2021/09/17 10:27:07;;;;;;;13.38;6.07;;;;;;;15.33;73.50;95525.44;4969883;28;20583;-78
2021/09/17 10:29:52;;;;;;;10.73;6.15;;;;;;;15.24;82.92;95529.84;4971085;28;20078;-78
2021/09/17 10:32:27;;;;;;;10.93;6.22;;;;;;;15.23;73.82;95517.69;4964654;28;20049;-81
2021/09/17 10:35:10;;;;;;;14.18;5.13;;;;;;;15.07;74.39;95530.50;4970658;28;20039;-78
2021/09/17 10:38:17;;;;;;;9.15;4.65;;;;;;;14.98;73.01;95522.44;4964428;28;20053;-78
2021/09/17 10:41:04;;;;;;;7.90;3.88;;;;;;;15.06;74.91;95523.63;4962346;28;20047;-78
2021/09/17 10:43:52;;;;;;;9.38;4.70;;;;;;;15.04;73.28;95521.28;4971022;28;20047;-77
2021/09/17 10:46:20;;;;;;;7.85;4.55;;;;;;;15.12;74.59;95516.34;4959933;28;20066;-80
2021/09/17 10:48:51;;;;;;;10.07;4.70;;;;;;;15.31;74.16;95514.31;4963048;28;20516;-80
2021/09/17 10:51:36;;;;;;;8.93;5.30;;;;;;;15.41;72.83;95524.72;4968134;28;20046;-79
2021/09/17 10:54:06;;;;;;;7.80;4.53;;;;;;;15.19;80.29;95522.03;4974215;28;20408;-77
2021/09/17 10:56:47;;;;;;;8.90;4.97;;;;;;;15.41;73.94;95518.63;4966960;28;20042;-78
2021/09/17 10:59:30;;;;;;;7.38;4.53;;;;;;;15.44;77.11;95517.25;4965073;28;20046;-78
2021/09/17 11:02:01;;;;;;;7.00;3.90;;;;;;;15.61;67.54;95517.38;4956826;28;20042;-79
2021/09/17 11:04:29;;;;;;;6.95;3.60;;;;;;;15.67;68.10;95505.53;4967613;28;20039;-79
2021/09/17 11:07:16;;;;;;;7.57;4.18;;;;;;;15.81;67.69;95510.06;4964668;28;20070;-79
2021/09/17 11:09:43;;;;;;;7.88;5.07;;;;;;;15.80;71.06;95513.78;4970250;28;20055;-80
2021/09/17 11:12:18;;;;;;;17.58;5.45;;;;;;;15.61;69.98;95508.63;4968881;28;20047;-80
2021/09/17 11:14:55;;;;;;;9.52;5.32;;;;;;;15.66;73.36;95503.19;4967644;28;20050;-81